Time;durP1;ratioP1;P1;durP2;ratioP2;P2;SDS_P1;SDS_P2;PMS_P1;PMS_P2;Temp;Humidity;BMP_temperature;BMP_pressure;BME280_temperature;BME280_humidity;BME280_pressure;Samples;Min_cycle;Max_cycle;Signal;HPM_P1;HPM_P2
2024/01/18 00:00:29;0.00;0.00;0.62;0.00;0.00;0.62;3.10;2.40;;;18.20;21.30;;;;;;2252548;61;20410;-58
2024/01/18 00:03:14;0.00;0.00;0.62;0.00;0.00;0.62;3.47;2.67;;;18.20;21.20;;;;;;2251972;61;20912;-58
2024/01/18 00:05:58;0.00;0.00;0.62;0.00;0.00;0.62;2.67;2.17;;;18.20;21.20;;;;;;2252785;61;20355;-54
2024/01/18 00:08:43;0.00;0.00;0.62;0.00;0.00;0.62;3.00;2.30;;;18.20;21.20;;;;;;2252736;61;20390;-54
2024/01/18 00:11:27;0.00;0.00;0.62;0.00;0.00;0.62;3.37;2.70;;;18.20;21.20;;;;;;2252613;61;20576;-53
2024/01/18 00:14:14;0.00;0.00;0.62;0.00;0.00;0.62;2.60;2.20;;;18.20;21.20;;;;;;2252632;61;20474;-53
2024/01/18 00:16:59;0.00;0.00;0.62;0.00;0.00;0.62;3.87;2.60;;;18.20;21.20;;;;;;2252646;61;20407;-51
2024/01/18 00:19:43;0.00;0.00;0.62;0.00;0.00;0.62;2.73;2.10;;;18.30;21.30;;;;;;2252729;61;20367;-56
2024/01/18 00:22:28;0.00;0.00;0.62;0.00;0.00;0.62;3.00;2.70;;;18.20;21.20;;;;;;2252688;61;20362;-57
2024/01/18 00:25:13;0.00;0.00;0.62;0.00;0.00;0.62;3.37;2.47;;;18.20;21.20;;;;;;2252565;61;20445;-61
2024/01/18 00:27:57;0.00;0.00;0.62;0.00;0.00;0.62;3.60;2.67;;;18.20;21.20;;;;;;2252586;61;20768;-55
2024/01/18 00:30:43;0.00;0.00;0.62;0.00;0.00;0.62;3.23;2.60;;;18.20;21.20;;;;;;2252495;61;20398;-54
2024/01/18 00:33:28;0.00;0.00;0.62;0.00;0.00;0.62;2.40;2.03;;;18.20;21.20;;;;;;2252313;61;20402;-57
2024/01/18 00:36:12;0.00;0.00;0.62;0.00;0.00;0.62;2.87;2.37;;;18.20;21.20;;;;;;2252823;61;20890;-56
2024/01/18 00:38:57;0.00;0.00;0.62;0.00;0.00;0.62;2.43;2.00;;;18.20;21.20;;;;;;2252727;61;20370;-53
2024/01/18 00:41:42;0.00;0.00;0.62;0.00;0.00;0.62;2.70;2.33;;;18.20;21.20;;;;;;2252453;61;20903;-56
2024/01/18 00:44:27;0.00;0.00;0.62;0.00;0.00;0.62;2.87;2.13;;;18.20;21.20;;;;;;2252520;61;20441;-50
2024/01/18 00:47:13;0.00;0.00;0.62;0.00;0.00;0.62;2.50;2.10;;;18.20;21.20;;;;;;2252536;61;20774;-56
2024/01/18 00:49:57;0.00;0.00;0.62;0.00;0.00;0.62;2.87;2.07;;;18.20;21.20;;;;;;2252402;61;20403;-52
2024/01/18 00:52:42;0.00;0.00;0.62;0.00;0.00;0.62;2.50;1.80;;;18.20;21.80;;;;;;2252558;61;20443;-55
2024/01/18 00:55:26;0.00;0.00;0.62;0.00;0.00;0.62;3.07;2.27;;;18.20;21.20;;;;;;2252299;61;20923;-57
2024/01/18 00:58:11;0.00;0.00;0.62;0.00;0.00;0.62;2.33;2.07;;;18.20;21.20;;;;;;2252544;61;20370;-56
2024/01/18 01:00:55;0.00;0.00;0.62;0.00;0.00;0.62;2.67;2.07;;;18.20;21.20;;;;;;2252550;61;20422;-56
2024/01/18 01:03:41;0.00;0.00;0.62;0.00;0.00;0.62;2.80;2.43;;;18.20;21.20;;;;;;2252238;61;20923;-55
2024/01/18 01:06:26;0.00;0.00;0.62;0.00;0.00;0.62;3.10;2.13;;;18.20;21.20;;;;;;2252711;61;20359;-53
2024/01/18 01:09:11;0.00;0.00;0.62;0.00;0.00;0.62;2.77;2.00;;;18.30;21.30;;;;;;2252352;61;20421;-58
2024/01/18 01:11:56;0.00;0.00;0.62;0.00;0.00;0.62;2.33;2.10;;;18.20;21.20;;;;;;2252263;61;20390;-55
2024/01/18 01:14:41;0.00;0.00;0.62;0.00;0.00;0.62;2.83;2.03;;;18.20;21.20;;;;;;2252455;61;20437;-54
2024/01/18 01:17:25;0.00;0.00;0.62;0.00;0.00;0.62;2.47;1.77;;;18.20;21.20;;;;;;2252435;61;20815;-58
2024/01/18 01:20:12;0.00;0.00;0.62;0.00;0.00;0.62;2.57;2.20;;;18.20;21.20;;;;;;2252543;61;20766;-50
2024/01/18 01:22:57;0.00;0.00;0.62;0.00;0.00;0.62;2.97;2.20;;;18.20;21.20;;;;;;2252334;61;20359;-54
2024/01/18 01:25:42;0.00;0.00;0.62;0.00;0.00;0.62;2.50;1.97;;;18.20;21.20;;;;;;2252571;61;20425;-54
2024/01/18 01:28:26;0.00;0.00;0.62;0.00;0.00;0.62;2.63;1.80;;;18.20;21.20;;;;;;2252448;61;20895;-55
2024/01/18 01:31:11;0.00;0.00;0.62;0.00;0.00;0.62;2.33;1.77;;;18.20;21.20;;;;;;2252449;61;20446;-54
2024/01/18 01:33:55;0.00;0.00;0.62;0.00;0.00;0.62;3.17;2.30;;;18.20;21.20;;;;;;2252468;61;20382;-56
2024/01/18 01:36:41;0.00;0.00;0.62;0.00;0.00;0.62;2.70;1.80;;;18.20;21.20;;;;;;2252454;61;20359;-55
2024/01/18 01:39:26;0.00;0.00;0.62;0.00;0.00;0.62;2.20;1.93;;;18.30;21.30;;;;;;2252735;61;20414;-55
2024/01/18 01:42:10;0.00;0.00;0.62;0.00;0.00;0.62;3.00;2.30;;;18.20;21.20;;;;;;2252590;61;20358;-55
2024/01/18 01:44:55;0.00;0.00;0.62;0.00;0.00;0.62;2.30;1.70;;;18.20;21.20;;;;;;2252539;61;20940;-56
2024/01/18 01:47:39;0.00;0.00;0.62;0.00;0.00;0.62;3.07;2.47;;;18.20;21.20;;;;;;2252946;61;20409;-55
2024/01/18 01:50:24;0.00;0.00;0.62;0.00;0.00;0.62;2.43;1.83;;;18.20;21.20;;;;;;2253113;61;20422;-56
2024/01/18 01:53:10;0.00;0.00;0.62;0.00;0.00;0.62;2.87;1.93;;;18.20;21.20;;;;;;2252701;61;20374;-56
2024/01/18 01:55:55;0.00;0.00;0.62;0.00;0.00;0.62;2.57;2.30;;;18.20;21.20;;;;;;2252908;61;20370;-58
2024/01/18 01:58:40;0.00;0.00;0.62;0.00;0.00;0.62;2.10;1.43;;;18.20;21.20;;;;;;2252969;61;20356;-54
2024/01/18 02:01:25;0.00;0.00;0.62;0.00;0.00;0.62;2.57;1.83;;;18.20;21.20;;;;;;2252910;61;20355;-54
2024/01/18 02:04:10;0.00;0.00;0.62;0.00;0.00;0.62;2.20;1.87;;;18.20;21.20;;;;;;2253022;61;20791;-57
2024/01/18 02:06:59;0.00;0.00;0.62;0.00;0.00;0.62;3.40;2.37;;;18.20;21.20;;;;;;2252882;61;20443;-55
2024/01/18 02:09:46;0.00;0.00;0.62;0.00;0.00;0.62;2.53;2.10;;;18.20;21.20;;;;;;2252698;61;20371;-56
2024/01/18 02:12:32;0.00;0.00;0.62;0.00;0.00;0.62;3.13;2.43;;;18.20;21.20;;;;;;2251603;61;20941;-57
2024/01/18 02:15:18;0.00;0.00;0.62;0.00;0.00;0.62;2.67;2.07;;;18.20;21.20;;;;;;2249491;61;20418;-56
2024/01/18 02:18:04;0.00;0.00;0.62;0.00;0.00;0.62;3.47;2.40;;;18.20;21.20;;;;;;2640707;45;20883;-55
2024/01/18 02:20:49;0.00;0.00;0.62;0.00;0.00;0.62;2.57;1.87;;;18.20;21.20;;;;;;2252254;61;20374;-56
2024/01/18 02:23:36;0.00;0.00;0.62;0.00;0.00;0.62;2.33;1.80;;;18.20;21.20;;;;;;2252483;61;20386;-54
2024/01/18 02:26:22;0.00;0.00;0.62;0.00;0.00;0.62;2.00;1.70;;;18.20;21.20;;;;;;2253326;61;20366;-55
2024/01/18 02:29:07;0.00;0.00;0.62;0.00;0.00;0.62;2.23;1.80;;;18.20;21.20;;;;;;2253721;61;20781;-54
2024/01/18 02:31:52;0.00;0.00;0.62;0.00;0.00;0.62;2.20;1.87;;;18.20;21.20;;;;;;2252877;61;20455;-58
2024/01/18 02:34:40;0.00;0.00;0.62;0.00;0.00;0.62;2.43;1.77;;;18.20;21.70;;;;;;2253626;61;20525;-53
2024/01/18 02:37:25;0.00;0.00;0.62;0.00;0.00;0.62;2.10;1.90;;;18.20;21.20;;;;;;2253757;61;20422;-55
2024/01/18 02:40:10;0.00;0.00;0.62;0.00;0.00;0.62;2.60;1.90;;;18.20;21.20;;;;;;2253376;61;20363;-57
2024/01/18 02:42:57;0.00;0.00;0.62;0.00;0.00;0.62;2.10;1.60;;;18.20;21.20;;;;;;2253361;61;20823;-51
2024/01/18 02:45:41;0.00;0.00;0.62;0.00;0.00;0.62;3.23;2.17;;;18.20;21.20;;;;;;2253407;61;20402;-56
2024/01/18 02:48:26;0.00;0.00;0.62;0.00;0.00;0.62;2.50;2.10;;;18.20;21.20;;;;;;2253775;61;20836;-54
2024/01/18 02:51:11;0.00;0.00;0.62;0.00;0.00;0.62;2.07;1.60;;;18.20;21.20;;;;;;2253504;61;20390;-54
2024/01/18 02:53:55;0.00;0.00;0.62;0.00;0.00;0.62;2.63;2.10;;;18.20;21.20;;;;;;2253122;61;20434;-54
2024/01/18 02:56:40;0.00;0.00;0.62;0.00;0.00;0.62;2.17;1.90;;;18.20;21.20;;;;;;2253590;61;20447;-54
2024/01/18 02:59:26;0.00;0.00;0.62;0.00;0.00;0.62;3.00;2.10;;;18.20;21.20;;;;;;2253498;61;20928;-57
2024/01/18 03:02:11;0.00;0.00;0.62;0.00;0.00;0.62;2.00;1.50;;;18.20;21.10;;;;;;2252863;61;20397;-57
2024/01/18 03:04:56;0.00;0.00;0.62;0.00;0.00;0.62;2.10;1.80;;;18.20;21.20;;;;;;2253301;61;20390;-56
2024/01/18 03:07:40;0.00;0.00;0.62;0.00;0.00;0.62;2.40;1.70;;;18.20;21.10;;;;;;2253382;61;20366;-53
2024/01/18 03:10:25;0.00;0.00;0.62;0.00;0.00;0.62;2.93;2.30;;;18.20;21.10;;;;;;2253662;61;20382;-54
2024/01/18 03:13:09;0.00;0.00;0.62;0.00;0.00;0.62;2.40;1.70;;;18.20;21.20;;;;;;2253061;61;20433;-58
2024/01/18 03:15:55;0.00;0.00;0.62;0.00;0.00;0.62;2.40;1.70;;;18.20;21.20;;;;;;2253160;61;20390;-57
2024/01/18 03:18:42;0.00;0.00;0.62;0.00;0.00;0.62;2.43;2.00;;;18.20;21.20;;;;;;2253243;61;20898;-57
2024/01/18 03:21:26;0.00;0.00;0.62;0.00;0.00;0.62;2.47;1.60;;;18.20;21.20;;;;;;2253765;61;20441;-53
2024/01/18 03:24:11;0.00;0.00;0.62;0.00;0.00;0.62;2.30;1.70;;;18.20;21.20;;;;;;2253132;61;20387;-56
2024/01/18 03:26:55;0.00;0.00;0.62;0.00;0.00;0.62;3.90;1.90;;;18.20;21.10;;;;;;2253073;61;20450;-59
2024/01/18 03:29:40;0.00;0.00;0.62;0.00;0.00;0.62;2.50;2.00;;;18.20;21.10;;;;;;2253381;61;22792;-55
2024/01/18 03:32:26;0.00;0.00;0.62;0.00;0.00;0.62;2.23;1.70;;;18.20;21.20;;;;;;2252941;61;20354;-56
2024/01/18 03:35:10;0.00;0.00;0.62;0.00;0.00;0.62;2.20;2.00;;;18.20;21.20;;;;;;2253327;61;20430;-55
2024/01/18 03:37:55;0.00;0.00;0.62;0.00;0.00;0.62;2.30;1.63;;;18.20;21.20;;;;;;2253248;61;20766;-53
2024/01/18 03:40:39;0.00;0.00;0.62;0.00;0.00;0.62;2.70;1.70;;;18.20;21.10;;;;;;2253217;61;20363;-56
2024/01/18 03:43:24;0.00;0.00;0.62;0.00;0.00;0.62;2.40;1.80;;;18.20;21.10;;;;;;2252849;61;20410;-56
2024/01/18 03:46:13;0.00;0.00;0.62;0.00;0.00;0.62;2.30;1.70;;;18.20;21.10;;;;;;2253202;61;20483;-55
2024/01/18 03:48:59;0.00;0.00;0.62;0.00;0.00;0.62;2.20;1.77;;;18.20;21.10;;;;;;2253211;61;20371;-56
2024/01/18 03:51:44;0.00;0.00;0.62;0.00;0.00;0.62;1.90;1.43;;;18.20;21.20;;;;;;2252786;61;20426;-55
2024/01/18 03:54:28;0.00;0.00;0.62;0.00;0.00;0.62;2.50;1.70;;;18.20;21.20;;;;;;2253145;61;20413;-57
2024/01/18 03:57:13;0.00;0.00;0.62;0.00;0.00;0.62;2.00;1.57;;;18.20;21.20;;;;;;2253048;61;20363;-56
2024/01/18 03:59:57;0.00;0.00;0.62;0.00;0.00;0.62;2.13;1.80;;;18.20;21.10;;;;;;2253450;61;20406;-57
2024/01/18 04:02:43;0.00;0.00;0.62;0.00;0.00;0.62;2.30;1.67;;;18.20;21.10;;;;;;2252973;61;20447;-53
2024/01/18 04:05:29;0.00;0.00;0.62;0.00;0.00;0.62;1.70;1.50;;;18.20;21.20;;;;;;2253132;61;21000;-54
2024/01/18 04:08:13;0.00;0.00;0.62;0.00;0.00;0.62;2.03;1.70;;;18.20;21.20;;;;;;2253274;61;20391;-55
2024/01/18 04:10:58;0.00;0.00;0.62;0.00;0.00;0.62;2.60;1.80;;;18.20;21.20;;;;;;2253196;61;20805;-53
2024/01/18 04:13:42;0.00;0.00;0.62;0.00;0.00;0.62;2.70;1.80;;;18.20;21.20;;;;;;2252634;61;20379;-56
2024/01/18 04:16:29;0.00;0.00;0.62;0.00;0.00;0.62;2.83;1.57;;;18.20;21.10;;;;;;2252655;61;20459;-55
2024/01/18 04:19:13;0.00;0.00;0.62;0.00;0.00;0.62;1.90;1.60;;;18.20;21.20;;;;;;2253513;61;20399;-55
2024/01/18 04:21:59;0.00;0.00;0.62;0.00;0.00;0.62;2.23;1.50;;;18.20;21.70;;;;;;2252662;61;20363;-56
2024/01/18 04:24:45;0.00;0.00;0.62;0.00;0.00;0.62;2.13;1.57;;;18.20;21.10;;;;;;2253290;61;20792;-53
2024/01/18 04:27:30;0.00;0.00;0.62;0.00;0.00;0.62;2.60;1.80;;;18.20;21.10;;;;;;2253357;61;20394;-55
2024/01/18 04:30:14;0.00;0.00;0.62;0.00;0.00;0.62;2.60;1.77;;;18.20;21.20;;;;;;2253055;61;20390;-55
2024/01/18 04:32:59;0.00;0.00;0.62;0.00;0.00;0.62;2.33;1.90;;;18.20;21.10;;;;;;2252353;61;20506;-56
2024/01/18 04:35:43;0.00;0.00;0.62;0.00;0.00;0.62;2.27;2.00;;;18.20;21.10;;;;;;2252903;61;20414;-58
2024/01/18 04:38:29;0.00;0.00;0.62;0.00;0.00;0.62;2.30;1.83;;;18.20;21.10;;;;;;2252916;61;20540;-56
2024/01/18 04:41:15;0.00;0.00;0.62;0.00;0.00;0.62;2.47;1.70;;;18.20;21.10;;;;;;2253488;61;20358;-53
2024/01/18 04:44:00;0.00;0.00;0.62;0.00;0.00;0.62;2.07;1.40;;;18.20;21.10;;;;;;2252961;61;20410;-56
2024/01/18 04:46:44;0.00;0.00;0.62;0.00;0.00;0.62;2.40;1.90;;;18.20;21.10;;;;;;2252928;61;20438;-54
2024/01/18 04:49:29;0.00;0.00;0.62;0.00;0.00;0.62;2.30;1.90;;;18.20;21.10;;;;;;2252811;61;20559;-55
2024/01/18 04:52:13;0.00;0.00;0.62;0.00;0.00;0.62;2.17;1.60;;;18.20;21.10;;;;;;2252458;61;20392;-53
2024/01/18 04:55:03;0.00;0.00;0.62;0.00;0.00;0.62;2.60;1.60;;;18.20;21.10;;;;;;2253128;61;20391;-51
2024/01/18 04:57:48;0.00;0.00;0.62;0.00;0.00;0.62;1.83;1.40;;;18.20;21.20;;;;;;2253098;61;20394;-55
2024/01/18 05:00:32;0.00;0.00;0.62;0.00;0.00;0.62;2.43;1.50;;;18.20;21.70;;;;;;2252894;61;20454;-53
2024/01/18 05:03:17;0.00;0.00;0.62;0.00;0.00;0.62;2.30;1.80;;;18.20;21.20;;;;;;2252606;61;20390;-57
2024/01/18 05:06:02;0.00;0.00;0.62;0.00;0.00;0.62;2.87;1.97;;;18.20;21.20;;;;;;2252458;61;20370;-56
2024/01/18 05:08:48;0.00;0.00;0.62;0.00;0.00;0.62;2.80;1.80;;;18.20;21.20;;;;;;2253112;61;20390;-53
2024/01/18 05:11:35;0.00;0.00;0.62;0.00;0.00;0.62;2.20;1.40;;;18.20;21.10;;;;;;2252860;61;20390;-55
2024/01/18 05:14:19;0.00;0.00;0.62;0.00;0.00;0.62;2.00;1.67;;;18.20;21.10;;;;;;2252885;61;20429;-53
2024/01/18 05:17:10;0.00;0.00;0.62;0.00;0.00;0.62;2.37;2.00;;;18.20;21.10;;;;;;2253161;61;20398;-54
2024/01/18 05:19:55;0.00;0.00;0.62;0.00;0.00;0.62;2.57;1.90;;;18.20;21.20;;;;;;2253238;61;20358;-55
2024/01/18 05:22:40;0.00;0.00;0.62;0.00;0.00;0.62;2.37;1.80;;;18.20;21.10;;;;;;2252627;61;20402;-53
2024/01/18 05:25:24;0.00;0.00;0.62;0.00;0.00;0.62;2.40;1.40;;;18.20;21.20;;;;;;2252947;61;20406;-56
2024/01/18 05:28:11;0.00;0.00;0.62;0.00;0.00;0.62;2.47;1.57;;;18.20;21.10;;;;;;2252156;61;20406;-58
2024/01/18 05:30:57;0.00;0.00;0.62;0.00;0.00;0.62;2.47;1.87;;;18.20;21.10;;;;;;2253007;61;20962;-55
2024/01/18 05:33:41;0.00;0.00;0.62;0.00;0.00;0.62;2.43;1.60;;;18.20;21.10;;;;;;2252804;61;20445;-51
2024/01/18 05:36:26;0.00;0.00;0.62;0.00;0.00;0.62;2.33;1.80;;;18.20;21.10;;;;;;2252579;61;20355;-53
2024/01/18 05:39:12;0.00;0.00;0.62;0.00;0.00;0.62;2.07;1.60;;;18.20;21.10;;;;;;2253210;61;20405;-57
2024/01/18 05:41:57;0.00;0.00;0.62;0.00;0.00;0.62;2.80;2.17;;;18.20;21.10;;;;;;2252688;61;20446;-58
2024/01/18 05:44:43;0.00;0.00;0.62;0.00;0.00;0.62;2.60;1.90;;;18.20;21.20;;;;;;2252690;61;20702;-56
2024/01/18 05:47:27;0.00;0.00;0.62;0.00;0.00;0.62;1.97;1.47;;;18.20;21.20;;;;;;2253146;61;20426;-58
2024/01/18 05:50:12;0.00;0.00;0.62;0.00;0.00;0.62;2.37;1.60;;;18.20;21.20;;;;;;2253172;61;20422;-55
2024/01/18 05:52:57;0.00;0.00;0.62;0.00;0.00;0.62;2.50;1.80;;;18.20;21.20;;;;;;2252282;61;20803;-56
2024/01/18 05:55:41;0.00;0.00;0.62;0.00;0.00;0.62;2.77;1.50;;;18.20;21.10;;;;;;2252949;61;20364;-56
2024/01/18 05:58:29;0.00;0.00;0.62;0.00;0.00;0.62;2.40;1.97;;;18.20;21.70;;;;;;2252705;61;20370;-56
2024/01/18 06:01:15;0.00;0.00;0.62;0.00;0.00;0.62;2.40;2.00;;;18.20;21.10;;;;;;2252819;61;20398;-53
2024/01/18 06:04:00;0.00;0.00;0.62;0.00;0.00;0.62;2.17;1.63;;;18.20;21.10;;;;;;2252726;61;20391;-53
2024/01/18 06:06:44;0.00;0.00;0.62;0.00;0.00;0.62;2.00;1.60;;;18.20;21.10;;;;;;2252820;61;20422;-56
2024/01/18 06:09:29;0.00;0.00;0.62;0.00;0.00;0.62;2.40;1.77;;;18.20;21.20;;;;;;2252759;61;20367;-56
2024/01/18 06:12:13;0.00;0.00;0.62;0.00;0.00;0.62;2.07;1.50;;;18.20;21.20;;;;;;2252842;61;20422;-56
2024/01/18 06:14:58;0.00;0.00;0.62;0.00;0.00;0.62;2.40;1.63;;;18.20;21.20;;;;;;2252971;61;20394;-53
2024/01/18 06:17:44;0.00;0.00;0.62;0.00;0.00;0.62;2.47;1.77;;;18.20;21.10;;;;;;2253052;61;20371;-52
2024/01/18 06:20:29;0.00;0.00;0.62;0.00;0.00;0.62;2.67;1.97;;;18.20;21.20;;;;;;2252776;61;20421;-51
2024/01/18 06:23:13;0.00;0.00;0.62;0.00;0.00;0.62;3.83;2.00;;;18.20;21.20;;;;;;2252491;61;20819;-58
2024/01/18 06:25:58;0.00;0.00;0.62;0.00;0.00;0.62;2.13;1.57;;;18.20;21.20;;;;;;2252340;61;20362;-56
2024/01/18 06:28:42;0.00;0.00;0.62;0.00;0.00;0.62;2.30;1.77;;;18.20;21.10;;;;;;2252725;61;20401;-56
2024/01/18 06:31:28;0.00;0.00;0.62;0.00;0.00;0.62;2.57;1.70;;;18.20;21.10;;;;;;2252740;61;20998;-54
2024/01/18 06:34:14;0.00;0.00;0.62;0.00;0.00;0.62;2.63;1.77;;;18.20;21.20;;;;;;2252765;61;20963;-55
2024/01/18 06:36:58;0.00;0.00;0.62;0.00;0.00;0.62;2.40;2.10;;;18.20;21.10;;;;;;2252799;61;20418;-56
2024/01/18 06:39:43;0.00;0.00;0.62;0.00;0.00;0.62;3.43;2.33;;;18.20;21.20;;;;;;2252983;61;20437;-56
2024/01/18 06:42:28;0.00;0.00;0.62;0.00;0.00;0.62;3.40;2.13;;;18.20;21.10;;;;;;2252117;61;20446;-57
2024/01/18 06:45:14;0.00;0.00;0.62;0.00;0.00;0.62;2.67;1.80;;;18.10;21.10;;;;;;2252738;61;20437;-57
2024/01/18 06:47:59;0.00;0.00;0.62;0.00;0.00;0.62;2.47;1.90;;;18.20;21.10;;;;;;2252987;61;20378;-55
2024/01/18 06:50:45;0.00;0.00;0.62;0.00;0.00;0.62;2.60;1.70;;;18.20;21.10;;;;;;2252654;61;20382;-56
2024/01/18 06:53:30;0.00;0.00;0.62;0.00;0.00;0.62;3.03;1.60;;;18.20;21.10;;;;;;2252570;61;20398;-57
2024/01/18 06:56:15;0.00;0.00;0.62;0.00;0.00;0.62;2.60;1.60;;;18.20;21.10;;;;;;2253049;61;20438;-56
2024/01/18 06:59:01;0.00;0.00;0.62;0.00;0.00;0.62;1.97;1.60;;;18.20;21.10;;;;;;2252530;61;20362;-55
2024/01/18 07:01:46;0.00;0.00;0.62;0.00;0.00;0.62;2.13;1.93;;;18.20;21.10;;;;;;2252604;61;20383;-57
2024/01/18 07:04:31;0.00;0.00;0.62;0.00;0.00;0.62;2.03;1.40;;;18.20;21.10;;;;;;2252140;61;20463;-56
2024/01/18 07:07:17;0.00;0.00;0.62;0.00;0.00;0.62;2.37;1.70;;;18.20;21.10;;;;;;2252985;61;20374;-55
2024/01/18 07:10:03;0.00;0.00;0.62;0.00;0.00;0.62;2.80;1.97;;;18.20;21.10;;;;;;2252688;61;20425;-53
2024/01/18 07:12:47;0.00;0.00;0.62;0.00;0.00;0.62;2.47;1.77;;;18.20;21.10;;;;;;2252746;61;20374;-53
2024/01/18 07:15:32;0.00;0.00;0.62;0.00;0.00;0.62;2.03;1.47;;;18.20;21.10;;;;;;2253542;61;20761;-54
2024/01/18 07:18:16;0.00;0.00;0.62;0.00;0.00;0.62;2.30;1.70;;;18.20;21.10;;;;;;2253120;61;20823;-54
2024/01/18 07:21:01;0.00;0.00;0.62;0.00;0.00;0.62;3.63;2.07;;;18.20;21.10;;;;;;2253129;61;20383;-54
2024/01/18 07:23:47;0.00;0.00;0.62;0.00;0.00;0.62;2.10;1.60;;;18.20;21.10;;;;;;2265187;40;21575;-52
2024/01/18 07:26:32;0.00;0.00;0.62;0.00;0.00;0.62;2.10;1.70;;;18.20;21.10;;;;;;2256838;61;20366;-57
2024/01/18 07:29:16;0.00;0.00;0.62;0.00;0.00;0.62;2.33;1.70;;;18.20;21.10;;;;;;2257626;61;20366;-57
2024/01/18 07:32:01;0.00;0.00;0.62;0.00;0.00;0.62;3.10;2.10;;;18.20;21.70;;;;;;2257220;61;20393;-54
2024/01/18 07:34:45;0.00;0.00;0.62;0.00;0.00;0.62;2.43;1.63;;;18.20;21.10;;;;;;2253918;61;20418;-56
2024/01/18 07:37:30;0.00;0.00;0.62;0.00;0.00;0.62;2.10;1.90;;;18.20;21.10;;;;;;2253269;61;20831;-59
2024/01/18 07:40:19;0.00;0.00;0.62;0.00;0.00;0.62;2.27;1.60;;;18.20;21.10;;;;;;2253341;61;20769;-54
2024/01/18 07:43:04;0.00;0.00;0.62;0.00;0.00;0.62;2.70;2.07;;;18.20;21.10;;;;;;2252878;61;20433;-56
2024/01/18 07:45:48;0.00;0.00;0.62;0.00;0.00;0.62;2.30;1.60;;;18.20;21.10;;;;;;2253316;61;20951;-59
2024/01/18 07:48:33;0.00;0.00;0.62;0.00;0.00;0.62;3.00;2.20;;;18.20;21.10;;;;;;2253374;61;20465;-57
2024/01/18 07:51:18;0.00;0.00;0.62;0.00;0.00;0.62;2.03;1.60;;;18.20;21.10;;;;;;2253401;61;20437;-55
2024/01/18 07:54:04;0.00;0.00;0.62;0.00;0.00;0.62;2.60;1.73;;;18.20;21.10;;;;;;2253100;61;20801;-55
2024/01/18 07:56:50;0.00;0.00;0.62;0.00;0.00;0.62;3.07;2.10;;;18.20;21.10;;;;;;2253187;61;20363;-56
2024/01/18 07:59:34;0.00;0.00;0.62;0.00;0.00;0.62;2.30;1.80;;;18.20;21.10;;;;;;2253346;61;20502;-57
2024/01/18 08:02:19;0.00;0.00;0.62;0.00;0.00;0.62;3.13;1.83;;;18.20;21.30;;;;;;2253089;61;20450;-57
2024/01/18 08:05:05;0.00;0.00;0.62;0.00;0.00;0.62;2.43;1.73;;;18.20;21.10;;;;;;2253210;61;20811;-53
2024/01/18 08:07:50;0.00;0.00;0.62;0.00;0.00;0.62;2.70;2.13;;;18.20;21.10;;;;;;2253521;61;20767;-57
2024/01/18 08:10:34;0.00;0.00;0.62;0.00;0.00;0.62;3.37;2.10;;;18.20;21.10;;;;;;2253275;61;20851;-56
2024/01/18 08:13:20;0.00;0.00;0.62;0.00;0.00;0.62;3.60;2.80;;;18.20;21.10;;;;;;2253002;61;20526;-55
2024/01/18 08:16:06;0.00;0.00;0.62;0.00;0.00;0.62;2.80;2.33;;;18.20;21.10;;;;;;2253278;61;20466;-58
2024/01/18 08:18:51;0.00;0.00;0.62;0.00;0.00;0.62;3.00;2.33;;;18.20;21.10;;;;;;2252539;61;20458;-53
2024/01/18 08:21:43;0.00;0.00;0.62;0.00;0.00;0.62;3.70;2.90;;;18.20;21.10;;;;;;2252959;61;20792;-53
2024/01/18 08:24:28;0.00;0.00;0.62;0.00;0.00;0.62;2.97;2.57;;;18.20;21.10;;;;;;2253169;61;20391;-52
2024/01/18 08:27:13;0.00;0.00;0.62;0.00;0.00;0.62;4.10;2.40;;;18.20;21.10;;;;;;2253094;61;20906;-57
2024/01/18 08:29:59;0.00;0.00;0.62;0.00;0.00;0.62;3.90;2.53;;;18.20;21.10;;;;;;2253039;61;20854;-52
2024/01/18 08:32:43;0.00;0.00;0.62;0.00;0.00;0.62;2.77;2.37;;;18.20;21.10;;;;;;2252892;61;20942;-56
2024/01/18 08:35:28;0.00;0.00;0.62;0.00;0.00;0.62;3.00;2.40;;;18.20;21.10;;;;;;2253211;61;20388;-54
2024/01/18 08:38:12;0.00;0.00;0.62;0.00;0.00;0.62;3.40;2.87;;;18.20;21.10;;;;;;2253209;61;20453;-58
2024/01/18 08:40:57;0.00;0.00;0.62;0.00;0.00;0.62;3.90;3.50;;;18.20;21.10;;;;;;2253500;61;20414;-56
2024/01/18 08:43:42;0.00;0.00;0.62;0.00;0.00;0.62;3.23;2.67;;;18.20;21.10;;;;;;2252431;61;20393;-56
2024/01/18 08:46:28;0.00;0.00;0.62;0.00;0.00;0.62;3.17;2.60;;;18.20;21.10;;;;;;2253469;61;20398;-56
2024/01/18 08:49:13;0.00;0.00;0.62;0.00;0.00;0.62;4.60;3.23;;;18.20;21.10;;;;;;2252968;61;20941;-54
2024/01/18 08:51:57;0.00;0.00;0.62;0.00;0.00;0.62;3.70;3.07;;;18.20;21.10;;;;;;2252398;61;20984;-50
2024/01/18 08:54:42;0.00;0.00;0.62;0.00;0.00;0.62;3.67;3.20;;;18.20;21.10;;;;;;2253206;61;20472;-52
2024/01/18 08:57:29;0.00;0.00;0.62;0.00;0.00;0.62;3.60;3.03;;;18.20;21.10;;;;;;2253118;61;20398;-56
2024/01/18 09:00:17;0.00;0.00;0.62;0.00;0.00;0.62;4.63;3.60;;;18.20;21.10;;;;;;2253412;61;20763;-50
2024/01/18 09:03:04;0.00;0.00;0.62;0.00;0.00;0.62;4.63;3.80;;;18.20;21.20;;;;;;2252685;61;20422;-61
2024/01/18 09:05:48;0.00;0.00;0.62;0.00;0.00;0.62;6.67;4.20;;;18.20;21.20;;;;;;2253070;61;20899;-55
2024/01/18 09:08:36;0.00;0.00;0.62;0.00;0.00;0.62;4.77;3.97;;;18.20;21.20;;;;;;2253318;61;20367;-52
2024/01/18 09:11:21;0.00;0.00;0.62;0.00;0.00;0.62;5.33;4.43;;;18.20;21.20;;;;;;2253182;61;20430;-54
2024/01/18 09:14:06;0.00;0.00;0.62;0.00;0.00;0.62;5.23;4.40;;;18.20;21.20;;;;;;2252786;61;20410;-63
2024/01/18 09:16:51;0.00;0.00;0.62;0.00;0.00;0.62;6.20;5.43;;;18.20;21.20;;;;;;2253058;61;20455;-55
2024/01/18 09:19:38;0.00;0.00;0.62;0.00;0.00;0.62;5.00;4.10;;;18.20;21.20;;;;;;2253221;61;20367;-53
2024/01/18 09:22:23;0.00;0.00;0.62;0.00;0.00;0.62;6.27;5.00;;;18.20;21.20;;;;;;2252607;61;20368;-58
2024/01/18 09:25:08;0.00;0.00;0.62;0.00;0.00;0.62;5.70;4.90;;;18.20;21.20;;;;;;2252937;61;20394;-54
2024/01/18 09:27:52;0.00;0.00;0.62;0.00;0.00;0.62;8.17;6.47;;;18.30;21.30;;;;;;2252620;61;20776;-55
2024/01/18 09:30:37;0.00;0.00;0.62;0.00;0.00;0.62;6.60;5.37;;;18.20;21.30;;;;;;2252932;61;20494;-53
2024/01/18 09:33:22;0.00;0.00;0.62;0.00;0.00;0.62;9.17;6.70;;;18.20;21.30;;;;;;2252574;61;20394;-53
2024/01/18 09:36:08;0.00;0.00;0.62;0.00;0.00;0.62;7.40;6.33;;;18.20;21.30;;;;;;2252942;61;20375;-54
2024/01/18 09:38:52;0.00;0.00;0.62;0.00;0.00;0.62;7.90;6.40;;;18.30;21.40;;;;;;2252760;61;20371;-55
2024/01/18 09:41:37;0.00;0.00;0.62;0.00;0.00;0.62;6.20;5.30;;;18.30;21.40;;;;;;2252547;61;20379;-53
2024/01/18 09:44:30;0.00;0.00;0.62;0.00;0.00;0.62;7.50;6.30;;;18.30;21.40;;;;;;2253144;61;20477;-53
2024/01/18 09:47:15;0.00;0.00;0.62;0.00;0.00;0.62;9.87;7.23;;;18.30;21.40;;;;;;2252890;61;20429;-57
2024/01/18 09:50:00;0.00;0.00;0.62;0.00;0.00;0.62;8.30;6.27;;;18.30;21.40;;;;;;2252904;61;20387;-55
2024/01/18 09:52:48;0.00;0.00;0.62;0.00;0.00;0.62;7.40;6.70;;;18.30;21.50;;;;;;2252914;61;20451;-52
2024/01/18 09:55:32;0.00;0.00;0.62;0.00;0.00;0.62;10.27;8.30;;;18.30;21.40;;;;;;2253020;61;20406;-53
2024/01/18 09:58:18;0.00;0.00;0.62;0.00;0.00;0.62;10.40;8.50;;;18.30;21.40;;;;;;2253089;61;20442;-54
2024/01/18 10:01:05;0.00;0.00;0.62;0.00;0.00;0.62;10.60;9.13;;;18.30;21.40;;;;;;2252915;61;20414;-56
2024/01/18 10:03:50;0.00;0.00;0.62;0.00;0.00;0.62;10.63;8.37;;;18.30;21.50;;;;;;2252455;61;20962;-55
2024/01/18 10:06:35;0.00;0.00;0.62;0.00;0.00;0.62;7.27;6.50;;;18.40;21.50;;;;;;2252831;61;20459;-54
2024/01/18 10:09:21;0.00;0.00;0.62;0.00;0.00;0.62;10.33;8.00;;;18.40;21.50;;;;;;2252915;61;20887;-55
2024/01/18 10:12:06;0.00;0.00;0.62;0.00;0.00;0.62;9.10;7.20;;;18.40;21.50;;;;;;2252433;61;20546;-57
2024/01/18 10:14:51;0.00;0.00;0.62;0.00;0.00;0.62;9.03;7.00;;;18.40;21.60;;;;;;2252828;61;20925;-52
2024/01/18 10:17:37;0.00;0.00;0.62;0.00;0.00;0.62;8.40;6.90;;;18.40;21.50;;;;;;2252685;61;20486;-54
2024/01/18 10:20:23;0.00;0.00;0.62;0.00;0.00;0.62;8.77;7.87;;;18.40;21.60;;;;;;2252952;61;20829;-57
2024/01/18 10:23:10;0.00;0.00;0.62;0.00;0.00;0.62;9.50;8.33;;;18.50;21.70;;;;;;2250796;61;20480;-56
2024/01/18 10:25:56;0.00;0.00;0.62;0.00;0.00;0.62;9.87;6.90;;;18.50;21.70;;;;;;2252843;61;20405;-55
2024/01/18 10:28:41;0.00;0.00;0.62;0.00;0.00;0.62;7.57;6.80;;;18.50;21.70;;;;;;2252863;61;20421;-52
2024/01/18 10:31:27;0.00;0.00;0.62;0.00;0.00;0.62;9.57;6.93;;;18.50;21.70;;;;;;2252764;61;20398;-53
2024/01/18 10:34:14;0.00;0.00;0.62;0.00;0.00;0.62;7.80;6.73;;;18.50;21.70;;;;;;2252938;61;20952;-52
2024/01/18 10:36:59;0.00;0.00;0.62;0.00;0.00;0.62;9.33;6.70;;;18.50;21.70;;;;;;2252642;61;20366;-54
2024/01/18 10:39:46;0.00;0.00;0.62;0.00;0.00;0.62;8.00;6.57;;;18.50;21.70;;;;;;2252851;61;20586;-55
2024/01/18 10:42:33;0.00;0.00;0.62;0.00;0.00;0.62;8.30;6.60;;;18.60;21.70;;;;;;2252644;61;20354;-55
2024/01/18 10:45:18;0.00;0.00;0.62;0.00;0.00;0.62;7.90;6.50;;;18.60;21.70;;;;;;2252193;61;20470;-54
2024/01/18 10:48:04;0.00;0.00;0.62;0.00;0.00;0.62;9.57;6.77;;;18.60;21.70;;;;;;2253143;61;20382;-53
2024/01/18 10:50:53;0.00;0.00;0.62;0.00;0.00;0.62;7.30;5.93;;;18.60;21.70;;;;;;2253225;61;20417;-57